createdAt,value
2022-11-30T00:01:36.036Z,21.40
2022-11-30T00:04:05.715Z,21.33
2022-11-30T00:06:33.403Z,21.27
2022-11-30T00:09:00.674Z,20.25
2022-11-30T00:11:28.642Z,21.65
2022-11-30T00:13:56.098Z,21.25
2022-11-30T00:16:23.522Z,22.17
2022-11-30T00:18:51.362Z,21.10
2022-11-30T00:21:19.413Z,21.13
2022-11-30T00:23:48.115Z,20.52
2022-11-30T00:26:17.985Z,19.63
2022-11-30T00:28:46.086Z,20.83
2022-11-30T00:31:15.616Z,20.27
2022-11-30T00:33:45.816Z,21.30
2022-11-30T00:36:17.848Z,21.67
2022-11-30T00:38:45.963Z,20.58
2022-11-30T00:41:13.660Z,21.50
2022-11-30T00:43:41.282Z,22.08
2022-11-30T00:46:09.517Z,21.33
2022-11-30T00:48:41.016Z,20.70
2022-11-30T00:51:10.539Z,21.23
2022-11-30T00:53:38.307Z,21.15
2022-11-30T00:56:08.547Z,21.10
2022-11-30T00:58:38.326Z,21.25
2022-11-30T01:01:06.031Z,20.75
2022-11-30T01:03:33.979Z,20.70
2022-11-30T01:06:05.496Z,22.67
2022-11-30T01:08:33.679Z,22.60
2022-11-30T01:11:12.582Z,22.40
2022-11-30T01:13:39.843Z,21.63
2022-11-30T01:16:16.772Z,21.83
2022-11-30T01:18:47.006Z,21.35
2022-11-30T01:21:17.505Z,23.45
2022-11-30T01:23:49.901Z,22.52
2022-11-30T01:26:17.442Z,22.00
2022-11-30T01:28:45.199Z,21.77
2022-11-30T01:31:14.779Z,22.40
2022-11-30T01:33:43.112Z,22.05
2022-11-30T01:36:15.531Z,21.38
2022-11-30T01:38:48.879Z,22.48
2022-11-30T01:41:23.184Z,21.77
2022-11-30T01:43:55.943Z,22.67
2022-11-30T01:46:45.881Z,22.48
2022-11-30T01:49:33.203Z,21.90
2022-11-30T01:52:10.987Z,22.83
2022-11-30T01:54:55.305Z,22.17
2022-11-30T01:57:35.956Z,21.73
2022-11-30T02:00:09.783Z,21.45
2022-11-30T02:02:59.333Z,21.65
2022-11-30T02:05:27.642Z,21.33
2022-11-30T02:07:55.960Z,21.13
2022-11-30T02:10:30.190Z,21.92
2022-11-30T02:13:22.988Z,22.00
2022-11-30T02:16:08.140Z,22.42
2022-11-30T02:18:49.186Z,22.65
2022-11-30T02:21:36.461Z,22.13
2022-11-30T02:24:17.331Z,21.38
2022-11-30T02:26:50.728Z,21.20
2022-11-30T02:30:05.420Z,22.77
2022-11-30T02:32:37.493Z,21.77
2022-11-30T02:35:09.210Z,22.15
2022-11-30T02:37:38.663Z,22.17
2022-11-30T02:40:13.723Z,22.58
2022-11-30T02:42:43.518Z,22.27
2022-11-30T02:45:11.808Z,21.73
2022-11-30T02:48:18.353Z,22.80
2022-11-30T02:50:54.422Z,22.45
2022-11-30T02:53:24.432Z,22.08
2022-11-30T02:55:53.066Z,22.67
2022-11-30T02:58:21.558Z,22.13
2022-11-30T03:00:48.929Z,21.50
2022-11-30T03:03:16.250Z,23.73
2022-11-30T03:05:46.638Z,23.20
2022-11-30T03:08:13.916Z,22.77
2022-11-30T03:10:41.222Z,23.05
2022-11-30T03:13:11.538Z,22.33
2022-11-30T03:15:41.102Z,21.35
2022-11-30T03:18:08.405Z,22.85
2022-11-30T03:20:40.014Z,23.67
2022-11-30T03:23:07.279Z,22.55
2022-11-30T03:25:34.547Z,23.30
2022-11-30T03:28:36.733Z,22.77
2022-11-30T03:33:31.826Z,22.50
2022-11-30T03:36:07.833Z,23.00
2022-11-30T03:38:35.362Z,22.85
2022-11-30T03:41:05.899Z,23.17
2022-11-30T03:43:35.761Z,22.25
2022-11-30T03:46:03.871Z,21.77
2022-11-30T03:48:36.131Z,23.58
2022-11-30T03:51:06.891Z,23.20
2022-11-30T03:53:34.362Z,23.45
2022-11-30T03:56:06.382Z,23.88
2022-11-30T03:58:36.762Z,23.52
2022-11-30T04:01:10.482Z,23.30
2022-11-30T04:03:38.618Z,22.27
2022-11-30T04:06:07.283Z,22.90
2022-11-30T04:08:35.085Z,23.48
2022-11-30T04:11:03.737Z,24.25
2022-11-30T04:13:32.542Z,22.75
2022-11-30T04:16:00.085Z,22.40
2022-11-30T04:18:29.350Z,23.13
2022-11-30T04:21:01.096Z,23.60
2022-11-30T04:28:29.504Z,23.38
2022-11-30T04:31:00.955Z,22.98
2022-11-30T04:33:28.985Z,23.70
2022-11-30T04:36:01.390Z,22.88
2022-11-30T04:38:31.392Z,23.15
2022-11-30T04:41:07.529Z,22.02
2022-11-30T04:43:34.886Z,22.10
2022-11-30T04:46:05.371Z,23.85
2022-11-30T04:48:33.234Z,23.00
2022-11-30T04:51:06.146Z,23.23
2022-11-30T04:53:34.167Z,23.95
2022-11-30T04:56:09.079Z,22.92
2022-11-30T04:58:37.184Z,22.75
2022-11-30T05:01:07.195Z,23.17
2022-11-30T05:03:34.876Z,23.40
2022-11-30T05:06:02.716Z,22.40
2022-11-30T05:08:30.339Z,22.83
2022-11-30T05:10:57.709Z,22.35
2022-11-30T05:13:26.107Z,23.27
2022-11-30T05:15:55.996Z,23.35
2022-11-30T05:18:23.731Z,22.10
2022-11-30T05:20:56.274Z,22.90
2022-11-30T05:23:23.657Z,24.13
2022-11-30T05:25:51.381Z,24.20
2022-11-30T05:28:18.779Z,23.15
2022-11-30T05:30:46.157Z,23.27
2022-11-30T05:33:13.996Z,24.27
2022-11-30T05:35:41.253Z,23.63
2022-11-30T05:38:08.647Z,23.95
2022-11-30T05:40:36.093Z,23.48
2022-11-30T05:43:06.139Z,24.77
2022-11-30T05:45:33.600Z,23.20
2022-11-30T05:48:02.377Z,23.52
2022-11-30T05:50:32.335Z,22.90
2022-11-30T05:53:01.010Z,22.70
2022-11-30T05:55:29.628Z,24.58
2022-11-30T05:57:56.986Z,23.13
2022-11-30T06:00:26.619Z,24.80
2022-11-30T06:02:58.333Z,24.77
2022-11-30T06:05:27.239Z,24.08
2022-11-30T06:07:55.133Z,24.98
2022-11-30T06:10:22.588Z,24.55
2022-11-30T06:12:49.929Z,23.48
2022-11-30T06:15:19.510Z,26.50
2022-11-30T06:17:46.771Z,24.27
2022-11-30T06:20:16.815Z,24.80
2022-11-30T06:22:47.696Z,24.83
2022-11-30T06:25:15.163Z,24.87
2022-11-30T06:27:44.606Z,23.92
2022-11-30T06:30:14.480Z,24.30
2022-11-30T06:32:50.574Z,24.98
2022-11-30T06:35:19.125Z,25.55
2022-11-30T06:37:48.527Z,25.20
2022-11-30T06:40:15.942Z,25.38
2022-11-30T06:42:43.475Z,24.38
2022-11-30T06:49:02.350Z,23.73
2022-11-30T06:51:32.355Z,24.20
2022-11-30T06:54:02.064Z,22.50
2022-11-30T06:56:29.317Z,24.80
2022-11-30T06:58:56.572Z,23.48
2022-11-30T07:01:24.047Z,23.75
2022-11-30T07:04:02.193Z,23.98
2022-11-30T07:06:32.125Z,24.38
2022-11-30T07:09:02.112Z,25.08
2022-11-30T07:11:33.322Z,25.00
2022-11-30T07:14:01.088Z,24.33
2022-11-30T07:16:39.929Z,25.23
2022-11-30T07:19:09.536Z,24.25
2022-11-30T07:29:19.049Z,24.02
2022-11-30T07:31:58.531Z,25.08
2022-11-30T07:34:33.017Z,24.10
2022-11-30T07:37:04.420Z,26.50
2022-11-30T07:39:50.879Z,25.27
2022-11-30T07:42:24.763Z,25.65
2022-11-30T07:44:58.115Z,26.77
2022-11-30T07:47:44.992Z,26.88
2022-11-30T07:50:16.867Z,25.10
2022-11-30T07:52:50.140Z,27.33
2022-11-30T07:55:26.865Z,26.00
2022-11-30T07:57:57.248Z,26.77
2022-11-30T08:00:48.545Z,25.52
2022-11-30T08:06:11.963Z,25.63
2022-11-30T08:08:45.063Z,24.80
2022-11-30T08:11:19.058Z,25.75
2022-11-30T08:13:49.308Z,25.05
2022-11-30T08:16:20.571Z,26.00
2022-11-30T08:18:51.246Z,26.48
2022-11-30T08:21:21.137Z,24.55
2022-11-30T08:23:56.073Z,25.83
2022-11-30T08:26:24.772Z,24.85
2022-11-30T08:29:03.301Z,27.48
2022-11-30T08:31:36.336Z,27.17
2022-11-30T08:34:10.299Z,26.48
2022-11-30T08:36:40.561Z,28.33
2022-11-30T08:39:14.184Z,26.23
2022-11-30T08:41:43.022Z,27.48
2022-11-30T08:44:17.582Z,26.33
2022-11-30T08:46:56.525Z,27.25
2022-11-30T08:49:27.125Z,26.38
2022-11-30T08:54:51.251Z,29.75
2022-11-30T08:57:33.235Z,28.13
2022-11-30T09:00:27.873Z,28.83
2022-11-30T09:02:59.835Z,27.23
2022-11-30T09:05:34.800Z,30.13
2022-11-30T09:08:08.963Z,27.52
2022-11-30T09:10:48.089Z,27.42
2022-11-30T09:16:40.168Z,28.10
2022-11-30T09:19:26.739Z,26.25
2022-11-30T09:24:57.077Z,27.25
2022-11-30T09:30:19.850Z,28.08
2022-11-30T09:33:11.975Z,26.83
2022-11-30T09:38:29.427Z,25.63
2022-11-30T09:41:40.996Z,26.70
2022-11-30T09:44:39.117Z,27.65
2022-11-30T09:47:30.603Z,27.60
2022-11-30T09:50:21.898Z,27.20
2022-11-30T09:53:20.398Z,27.73
2022-11-30T09:55:55.338Z,27.98
2022-11-30T10:01:56.965Z,27.67
2022-11-30T10:04:30.435Z,29.02
2022-11-30T10:07:59.351Z,28.88
2022-11-30T10:11:00.353Z,27.23
2022-11-30T10:17:21.943Z,27.15
2022-11-30T10:20:53.230Z,26.65
2022-11-30T10:24:07.208Z,26.65
2022-11-30T10:26:45.959Z,27.77
2022-11-30T10:29:42.943Z,27.90
2022-11-30T10:33:07.333Z,26.85
2022-11-30T10:36:00.639Z,28.70
2022-11-30T10:38:52.689Z,26.17
2022-11-30T10:44:58.657Z,26.02
2022-11-30T10:48:09.945Z,26.00
2022-11-30T10:51:02.574Z,26.88
2022-11-30T10:53:41.005Z,24.90
2022-11-30T10:56:30.121Z,25.65
2022-11-30T10:59:30.339Z,26.88
2022-11-30T11:02:00.224Z,24.60
2022-11-30T11:04:39.100Z,24.52
2022-11-30T11:07:14.935Z,25.38
2022-11-30T11:10:05.029Z,26.00
2022-11-30T11:12:53.093Z,25.95
2022-11-30T11:15:27.461Z,25.65
2022-11-30T11:18:13.072Z,25.13
2022-11-30T11:20:45.058Z,27.27
2022-11-30T11:23:40.719Z,26.67
2022-11-30T11:26:26.502Z,26.52
2022-11-30T11:28:59.888Z,26.33
2022-11-30T11:31:53.781Z,24.80
2022-11-30T11:34:54.265Z,25.30
2022-11-30T11:37:39.423Z,27.08
2022-11-30T11:40:24.286Z,26.90
2022-11-30T11:43:05.260Z,26.83
2022-11-30T11:48:52.377Z,26.67
2022-11-30T11:51:49.941Z,25.88
2022-11-30T11:54:43.540Z,24.25
2022-11-30T11:57:19.752Z,25.67
2022-11-30T12:00:45.096Z,24.42
2022-11-30T12:07:00.533Z,24.00
2022-11-30T12:09:50.620Z,24.70
2022-11-30T12:12:18.314Z,25.27
2022-11-30T12:14:49.105Z,23.27
2022-11-30T12:17:19.617Z,24.95
2022-11-30T12:20:14.050Z,24.48
2022-11-30T12:23:05.905Z,24.15
2022-11-30T12:25:48.456Z,24.17
2022-11-30T12:28:28.467Z,24.40
2022-11-30T12:31:11.954Z,23.55
2022-11-30T12:34:01.819Z,22.80
2022-11-30T12:36:48.167Z,24.80
2022-11-30T12:39:31.592Z,25.02
2022-11-30T12:42:04.520Z,24.70
2022-11-30T12:44:58.104Z,22.67
2022-11-30T12:47:50.142Z,23.23
2022-11-30T12:53:29.588Z,21.70
2022-11-30T12:56:06.190Z,21.50
2022-11-30T12:59:03.019Z,23.55
2022-11-30T13:02:00.305Z,22.15
2022-11-30T13:04:59.011Z,23.25
2022-11-30T13:07:35.201Z,22.33
2022-11-30T13:12:53.176Z,20.65
2022-11-30T13:15:37.923Z,21.42
2022-11-30T13:18:35.965Z,22.27
2022-11-30T13:21:31.774Z,20.88
2022-11-30T13:24:10.664Z,21.38
2022-11-30T13:27:01.417Z,22.42
2022-11-30T13:30:20.714Z,22.50
2022-11-30T13:33:07.099Z,22.30
2022-11-30T13:36:09.927Z,22.80
2022-11-30T13:42:18.113Z,22.77
2022-11-30T13:48:28.455Z,23.52
2022-11-30T13:51:08.932Z,24.15
2022-11-30T13:54:06.969Z,24.73
2022-11-30T13:57:16.419Z,23.38
2022-11-30T14:00:43.852Z,23.70
2022-11-30T14:03:50.236Z,23.05
2022-11-30T14:10:45.062Z,22.75
2022-11-30T14:13:24.436Z,22.52
2022-11-30T14:16:01.958Z,24.20
2022-11-30T14:18:40.586Z,22.90
2022-11-30T14:21:20.646Z,22.98
2022-11-30T14:24:12.094Z,23.45
2022-11-30T14:26:45.056Z,23.70
2022-11-30T14:29:44.731Z,23.48
2022-11-30T14:32:18.875Z,23.33
2022-11-30T14:34:50.072Z,24.80
2022-11-30T14:37:22.693Z,24.02
2022-11-30T14:42:54.281Z,24.15
2022-11-30T14:45:23.112Z,23.95
2022-11-30T14:48:14.713Z,24.67
2022-11-30T14:50:59.951Z,25.80
2022-11-30T14:53:32.639Z,26.45
2022-11-30T14:56:15.075Z,26.75
2022-11-30T14:58:59.127Z,26.33
2022-11-30T15:01:34.659Z,26.08
2022-11-30T15:04:15.337Z,26.25
2022-11-30T15:06:43.662Z,25.15
2022-11-30T15:09:22.433Z,26.27
2022-11-30T15:11:51.816Z,26.30
2022-11-30T15:14:22.109Z,28.05
2022-11-30T15:16:54.596Z,27.85
2022-11-30T15:19:23.530Z,26.95
2022-11-30T15:21:54.672Z,26.27
2022-11-30T15:24:25.109Z,27.60
2022-11-30T15:27:10.573Z,26.77
2022-11-30T15:29:46.959Z,28.40
2022-11-30T15:32:18.432Z,26.83
2022-11-30T15:34:56.080Z,28.27
2022-11-30T15:37:38.020Z,28.38
2022-11-30T15:40:09.227Z,26.85
2022-11-30T15:42:45.509Z,27.55
2022-11-30T15:45:28.702Z,26.55
2022-11-30T15:48:04.169Z,27.65
2022-11-30T15:50:37.616Z,27.05
2022-11-30T15:53:21.757Z,29.38
2022-11-30T15:55:54.380Z,30.75
2022-11-30T15:58:46.624Z,30.67
2022-11-30T16:01:25.084Z,29.98
2022-11-30T16:03:55.434Z,29.70
2022-11-30T16:06:25.151Z,30.70
2022-11-30T16:08:58.284Z,34.10
2022-11-30T16:11:27.519Z,34.47
2022-11-30T16:14:00.077Z,36.05
2022-11-30T16:16:39.245Z,36.22
2022-11-30T16:19:23.735Z,35.92
2022-11-30T16:21:56.405Z,33.60
2022-11-30T16:24:25.045Z,32.92
2022-11-30T16:27:07.583Z,30.67
2022-11-30T16:29:46.813Z,29.23
2022-11-30T16:32:20.633Z,30.02
2022-11-30T16:34:50.773Z,29.85
2022-11-30T16:37:20.335Z,29.67
2022-11-30T16:39:51.497Z,29.45
2022-11-30T16:42:22.213Z,27.92
2022-11-30T16:44:49.673Z,27.90
2022-11-30T16:47:22.283Z,28.52
2022-11-30T16:50:05.254Z,29.40
2022-11-30T16:52:46.158Z,29.25
2022-11-30T16:55:19.310Z,28.48
2022-11-30T16:57:50.999Z,29.77
2022-11-30T17:00:34.663Z,28.10
2022-11-30T17:03:37.580Z,28.13
2022-11-30T17:06:07.368Z,27.92
2022-11-30T17:08:47.071Z,28.55
2022-11-30T17:11:34.479Z,27.73
2022-11-30T17:14:14.918Z,28.52
2022-11-30T17:17:15.572Z,27.85
2022-11-30T17:20:01.510Z,28.17
2022-11-30T17:22:32.637Z,28.25
2022-11-30T17:25:06.364Z,29.70
2022-11-30T17:27:38.771Z,28.23
2022-11-30T17:30:20.725Z,28.20
2022-11-30T17:35:29.841Z,34.10
2022-11-30T17:43:14.179Z,28.40
2022-11-30T17:48:09.418Z,26.45
2022-11-30T17:50:41.886Z,27.67
2022-11-30T17:53:14.186Z,27.95
2022-11-30T17:55:51.581Z,27.40
2022-11-30T17:58:32.620Z,27.17
2022-11-30T18:01:02.304Z,28.77
2022-11-30T18:03:36.636Z,27.85
2022-11-30T18:06:06.020Z,28.80
2022-11-30T18:08:34.700Z,28.15
2022-11-30T18:11:35.465Z,28.23
2022-11-30T18:14:14.670Z,27.15
2022-11-30T18:16:42.227Z,27.05
2022-11-30T18:19:22.319Z,28.95
2022-11-30T18:21:55.383Z,27.10
2022-11-30T18:24:25.980Z,29.52
2022-11-30T18:27:07.639Z,28.00
2022-11-30T18:29:40.538Z,28.38
2022-11-30T18:32:11.474Z,29.25
2022-11-30T18:34:42.261Z,29.52
2022-11-30T18:37:18.039Z,28.60
2022-11-30T18:39:51.338Z,26.70
2022-11-30T18:42:24.923Z,27.85
2022-11-30T18:44:56.123Z,27.33
2022-11-30T18:47:27.312Z,29.50
2022-11-30T18:50:42.691Z,30.30
2022-11-30T18:53:28.558Z,30.08
2022-11-30T19:03:26.331Z,28.23
2022-11-30T19:06:16.321Z,28.00
2022-11-30T19:09:38.079Z,27.25
2022-11-30T19:13:52.963Z,28.17
2022-11-30T19:15:24.578Z,26.92
2022-11-30T19:18:06.302Z,27.55
2022-11-30T19:24:12.473Z,27.02
2022-11-30T19:27:25.626Z,25.98
2022-11-30T19:33:16.796Z,26.85
2022-11-30T19:36:02.536Z,25.35
2022-11-30T19:38:41.343Z,26.15
2022-11-30T19:41:49.889Z,26.50
2022-11-30T19:44:37.888Z,25.10
2022-11-30T19:47:35.622Z,25.38
2022-11-30T19:53:37.020Z,26.08
2022-11-30T19:57:07.785Z,26.27
2022-11-30T20:00:16.694Z,26.13
2022-11-30T20:03:12.630Z,25.75
2022-11-30T20:08:24.040Z,25.42
2022-11-30T20:10:53.518Z,23.88
2022-11-30T20:13:20.886Z,24.52
2022-11-30T20:15:48.377Z,25.08
2022-11-30T20:18:15.763Z,25.02
2022-11-30T20:20:43.090Z,25.23
2022-11-30T20:23:10.444Z,25.40
2022-11-30T20:25:37.721Z,25.48
2022-11-30T20:28:09.623Z,25.52
2022-11-30T20:30:39.690Z,24.65
2022-11-30T20:33:09.203Z,24.35
2022-11-30T20:35:36.555Z,24.75
2022-11-30T20:38:03.822Z,25.27
2022-11-30T20:40:31.067Z,23.92
2022-11-30T20:42:58.326Z,23.20
2022-11-30T20:45:25.582Z,24.05
2022-11-30T20:47:52.908Z,23.30
2022-11-30T20:50:20.311Z,24.17
2022-11-30T20:52:47.590Z,22.95
2022-11-30T20:55:14.899Z,24.02
2022-11-30T20:57:42.162Z,24.05
2022-11-30T21:00:13.266Z,22.17
2022-11-30T21:02:40.848Z,23.75
2022-11-30T21:05:10.740Z,21.60
2022-11-30T21:07:38.246Z,21.92
2022-11-30T21:10:06.289Z,23.55
2022-11-30T21:12:33.581Z,21.25
2022-11-30T21:15:04.572Z,22.90
2022-11-30T21:17:32.086Z,22.63
2022-11-30T21:20:00.656Z,23.38
2022-11-30T21:22:30.590Z,21.85
2022-11-30T21:24:57.879Z,22.88
2022-11-30T21:27:25.155Z,21.42
2022-11-30T21:29:52.502Z,22.50
2022-11-30T21:32:22.007Z,22.48
2022-11-30T21:34:51.694Z,21.73
2022-11-30T21:37:24.152Z,23.08
2022-11-30T21:39:51.447Z,20.88
2022-11-30T21:42:18.784Z,20.98
2022-11-30T21:44:46.247Z,21.70
2022-11-30T21:47:14.718Z,20.77
2022-11-30T21:49:44.335Z,20.08
2022-11-30T21:52:13.924Z,19.70
2022-11-30T21:54:41.353Z,20.55
2022-11-30T21:57:08.621Z,19.27
2022-11-30T21:59:35.868Z,19.35
2022-11-30T22:02:03.153Z,19.70
2022-11-30T22:04:30.631Z,19.52
2022-11-30T22:06:57.955Z,19.25
2022-11-30T22:09:25.258Z,19.35
2022-11-30T22:11:57.721Z,19.67
2022-11-30T22:14:27.513Z,19.70
2022-11-30T22:16:57.493Z,18.90
2022-11-30T22:19:26.998Z,19.25
2022-11-30T22:21:54.616Z,18.85
2022-11-30T22:24:22.015Z,18.95
2022-11-30T22:26:49.451Z,18.20
2022-11-30T22:29:22.283Z,19.85
2022-11-30T22:31:52.020Z,18.75
2022-11-30T22:34:20.467Z,18.92
2022-11-30T22:36:49.935Z,18.75
2022-11-30T22:39:19.859Z,18.52
2022-11-30T22:41:55.089Z,17.52
2022-11-30T22:44:24.172Z,18.27
2022-11-30T22:46:51.582Z,16.80
2022-11-30T22:49:21.483Z,16.40
2022-11-30T22:51:49.908Z,16.90
2022-11-30T22:54:17.937Z,16.52
2022-11-30T22:56:46.458Z,16.30
2022-11-30T22:59:15.337Z,16.98
2022-11-30T23:01:45.777Z,16.77
2022-11-30T23:04:15.816Z,15.02
2022-11-30T23:06:44.620Z,15.52
2022-11-30T23:09:22.493Z,16.83
2022-11-30T23:11:51.060Z,15.63
2022-11-30T23:14:18.813Z,16.23
2022-11-30T23:16:48.445Z,15.52
2022-11-30T23:19:15.888Z,16.38
2022-11-30T23:21:45.387Z,15.45
2022-11-30T23:24:16.123Z,16.15
2022-11-30T23:26:43.931Z,15.27
2022-11-30T23:29:13.724Z,15.73
2022-11-30T23:31:42.498Z,15.35
2022-11-30T23:34:14.823Z,15.40
2022-11-30T23:36:42.455Z,14.75
2022-11-30T23:39:13.079Z,15.68
2022-11-30T23:41:41.159Z,15.85
2022-11-30T23:44:09.539Z,14.85
2022-11-30T23:46:41.781Z,15.10
2022-11-30T23:49:11.521Z,15.65
2022-11-30T23:51:38.808Z,15.30
2022-11-30T23:54:06.288Z,15.02
2022-11-30T23:56:35.786Z,15.63
2022-11-30T23:59:05.972Z,14.82
